Farciennes, Belgium
Current Conditions -  °F | °C
As of 3:50 AM on Thursday 27 Nov 2014 (Local Time) from EBCI Reporting Station
Haze Haze  
Wind Chill: 45°   Ceiling: 600
Heat Index: 48°   Visibility: 3mi
Dew Point: 46°   Wind: 8mph
Humidity: 93%   Direction: 160°SSE
Pressure: 29.77"   Gusts: NA
Location:  50.43°N, 4.54°E
Report Text: EBCI 270250Z 16007KT 5000 BR BKN006 BKN032 09/08 Q1008 NOSIG
Loading
Personal Weather Stations






























Interactive Weather Map New forecast layout! Learn more

10-Day Weather Forecast

Advertisements
Track Severe Weather on mobile